createdAt,value
2018-08-04T00:01:53.830Z,24.20
2018-08-04T00:04:22.245Z,24.20
2018-08-04T00:06:50.530Z,24.20
2018-08-04T00:09:18.731Z,24.20
2018-08-04T00:11:47.002Z,24.20
2018-08-04T00:14:15.133Z,24.10
2018-08-04T00:16:43.310Z,24.10
2018-08-04T00:19:11.484Z,24.00
2018-08-04T00:21:39.643Z,24.00
2018-08-04T00:24:07.806Z,23.90
2018-08-04T00:26:35.992Z,23.90
2018-08-04T00:29:04.179Z,23.90
2018-08-04T00:31:33.338Z,23.80
2018-08-04T00:34:01.494Z,23.80
2018-08-04T00:38:57.882Z,23.80
2018-08-04T00:41:26.065Z,23.80
2018-08-04T00:43:54.226Z,23.70
2018-08-04T00:46:22.416Z,23.70
2018-08-04T00:48:50.613Z,23.70
2018-08-04T00:51:18.800Z,23.60
2018-08-04T00:53:46.961Z,23.60
2018-08-04T00:56:15.139Z,23.60
2018-08-04T00:58:43.293Z,23.60
2018-08-04T01:01:11.734Z,23.60
2018-08-04T01:03:40.207Z,23.50
2018-08-04T01:06:08.704Z,23.50
2018-08-04T01:08:37.327Z,23.50
2018-08-04T01:11:05.490Z,23.50
2018-08-04T01:13:33.662Z,23.50
2018-08-04T01:16:01.839Z,23.40
2018-08-04T01:18:30.002Z,23.30
2018-08-04T01:20:58.167Z,23.30
2018-08-04T01:23:26.376Z,23.30
2018-08-04T01:25:54.569Z,23.30
2018-08-04T01:28:22.767Z,23.30
2018-08-04T01:30:50.934Z,23.20
2018-08-04T01:33:19.099Z,23.20
2018-08-04T01:35:47.301Z,23.10
2018-08-04T01:38:15.447Z,23.10
2018-08-04T01:40:43.606Z,23.10
2018-08-04T01:43:11.827Z,23.00
2018-08-04T01:45:39.986Z,23.00
2018-08-04T01:48:08.166Z,23.00
2018-08-04T01:50:36.350Z,23.00
2018-08-04T01:53:04.510Z,23.00
2018-08-04T01:55:32.675Z,23.00
2018-08-04T01:58:00.841Z,23.00
2018-08-04T02:00:28.990Z,23.00
2018-08-04T02:02:57.154Z,23.00
2018-08-04T02:05:25.351Z,22.90
2018-08-04T02:07:53.560Z,22.90
2018-08-04T02:10:21.747Z,22.90
2018-08-04T02:12:49.926Z,22.90
2018-08-04T02:15:18.102Z,22.90
2018-08-04T02:17:46.285Z,22.80
2018-08-04T02:20:14.442Z,22.80
2018-08-04T02:22:42.609Z,22.80
2018-08-04T02:25:10.775Z,22.80
2018-08-04T02:27:38.938Z,22.70
2018-08-04T02:30:07.112Z,22.70
2018-08-04T02:32:35.283Z,22.70
2018-08-04T02:35:03.455Z,22.70
2018-08-04T02:37:31.626Z,22.70
2018-08-04T02:39:59.791Z,22.60
2018-08-04T02:42:27.971Z,22.60
2018-08-04T02:44:56.998Z,22.60
2018-08-04T02:47:25.192Z,22.50
2018-08-04T02:49:53.376Z,22.50
2018-08-04T02:52:21.557Z,22.40
2018-08-04T02:54:49.716Z,22.40
2018-08-04T02:57:18.594Z,22.50
2018-08-04T02:59:46.755Z,22.50
2018-08-04T03:02:14.922Z,22.40
2018-08-04T03:04:43.099Z,22.40
2018-08-04T03:07:11.271Z,22.30
2018-08-04T03:09:40.198Z,22.30
2018-08-04T03:12:08.370Z,22.30
2018-08-04T03:14:36.531Z,22.30
2018-08-04T03:17:04.763Z,22.30
2018-08-04T03:19:32.931Z,22.30
2018-08-04T03:22:01.142Z,22.30
2018-08-04T03:24:29.353Z,22.30
2018-08-04T03:26:57.535Z,22.20
2018-08-04T03:29:25.707Z,22.20
2018-08-04T03:31:53.886Z,22.20
2018-08-04T03:34:22.286Z,22.10
2018-08-04T03:36:50.443Z,22.10
2018-08-04T03:39:18.609Z,22.10
2018-08-04T03:41:46.793Z,22.10
2018-08-04T03:44:14.966Z,22.10
2018-08-04T03:46:43.134Z,22.00
2018-08-04T03:49:11.334Z,22.00
2018-08-04T03:51:39.498Z,22.00
2018-08-04T03:54:07.678Z,22.00
2018-08-04T03:56:35.846Z,22.00
2018-08-04T04:01:32.040Z,22.00
2018-08-04T04:04:00.335Z,22.00
2018-08-04T04:06:28.577Z,22.00
2018-08-04T04:08:56.768Z,22.00
2018-08-04T04:11:24.931Z,22.00
2018-08-04T04:13:53.183Z,22.00
2018-08-04T04:16:21.363Z,22.00
2018-08-04T04:18:49.550Z,21.90
2018-08-04T04:21:17.731Z,21.90
2018-08-04T04:23:45.910Z,21.90
2018-08-04T04:26:14.101Z,21.80
2018-08-04T04:28:42.278Z,21.80
2018-08-04T04:31:10.462Z,21.90
2018-08-04T04:33:38.646Z,21.90
2018-08-04T04:36:06.826Z,21.90
2018-08-04T04:38:35.202Z,21.90
2018-08-04T04:41:03.378Z,21.90
2018-08-04T04:43:31.972Z,21.90
2018-08-04T04:46:00.188Z,22.00
2018-08-04T04:48:28.501Z,22.00
2018-08-04T04:50:56.655Z,22.00
2018-08-04T04:53:24.839Z,22.00
2018-08-04T04:55:53.352Z,22.00
2018-08-04T04:58:21.519Z,22.00
2018-08-04T05:00:49.706Z,22.00
2018-08-04T05:03:17.886Z,22.00
2018-08-04T05:05:46.062Z,22.10
2018-08-04T05:08:14.235Z,22.10
2018-08-04T05:10:42.422Z,22.20
2018-08-04T05:13:10.678Z,22.20
2018-08-04T05:15:38.822Z,22.30
2018-08-04T05:18:07.059Z,22.30
2018-08-04T05:20:35.237Z,22.30
2018-08-04T05:23:03.414Z,22.40
2018-08-04T05:25:31.836Z,22.40
2018-08-04T05:27:59.999Z,22.40
2018-08-04T05:30:28.213Z,22.40
2018-08-04T05:32:56.980Z,22.50
2018-08-04T05:35:25.194Z,22.60
2018-08-04T05:37:53.462Z,22.60
2018-08-04T05:40:21.658Z,22.60
2018-08-04T05:47:46.341Z,22.70
2018-08-04T05:50:14.515Z,22.80
2018-08-04T05:52:43.308Z,22.70
2018-08-04T05:55:12.411Z,22.70
2018-08-04T05:57:40.718Z,22.80
2018-08-04T06:00:09.332Z,22.80
2018-08-04T06:02:37.679Z,23.00
2018-08-04T06:07:34.412Z,23.10
2018-08-04T06:10:02.620Z,23.20
2018-08-04T06:12:30.812Z,23.30
2018-08-04T06:14:58.979Z,23.30
2018-08-04T06:17:27.154Z,23.50
2018-08-04T06:19:55.327Z,23.60
2018-08-04T06:22:23.486Z,23.70
2018-08-04T06:24:51.663Z,23.70
2018-08-04T06:27:19.830Z,23.80
2018-08-04T06:29:47.998Z,23.90
2018-08-04T06:32:16.183Z,24.00
2018-08-04T06:34:44.350Z,24.10
2018-08-04T06:37:12.528Z,24.10
2018-08-04T06:39:40.914Z,24.20
2018-08-04T06:42:09.121Z,24.30
2018-08-04T06:44:37.789Z,24.40
2018-08-04T06:47:06.119Z,24.40
2018-08-04T06:49:34.321Z,24.50
2018-08-04T06:52:02.805Z,24.50
2018-08-04T06:54:31.043Z,24.50
2018-08-04T06:59:27.692Z,24.80
2018-08-04T07:04:23.790Z,25.00
2018-08-04T07:06:51.970Z,25.10
2018-08-04T07:09:20.130Z,25.20
2018-08-04T07:11:48.302Z,25.30
2018-08-04T07:14:16.463Z,25.30
2018-08-04T07:16:44.644Z,25.40
2018-08-04T07:19:12.803Z,25.60
2018-08-04T07:21:40.974Z,25.40
2018-08-04T07:24:09.147Z,25.50
2018-08-04T07:26:37.314Z,25.70
2018-08-04T07:29:05.707Z,25.80
2018-08-04T07:31:33.766Z,25.90
2018-08-04T07:34:01.982Z,25.90
2018-08-04T07:36:30.200Z,25.90
2018-08-04T07:38:58.399Z,26.00
2018-08-04T07:41:26.575Z,26.10
2018-08-04T07:43:54.737Z,26.00
2018-08-04T07:46:22.905Z,26.10
2018-08-04T07:48:51.084Z,26.20
2018-08-04T07:51:19.255Z,26.30
2018-08-04T07:53:47.425Z,26.40
2018-08-04T07:56:15.596Z,26.50
2018-08-04T07:58:43.758Z,26.60
2018-08-04T08:01:11.936Z,26.50
2018-08-04T08:03:40.091Z,26.70
2018-08-04T08:06:08.262Z,26.80
2018-08-04T08:08:36.431Z,26.80
2018-08-04T08:11:04.670Z,26.80
2018-08-04T08:13:32.978Z,27.00
2018-08-04T08:18:29.370Z,27.30
2018-08-04T08:20:57.660Z,27.40
2018-08-04T08:23:25.864Z,27.50
2018-08-04T08:26:03.434Z,27.60
2018-08-04T08:28:31.615Z,27.70
2018-08-04T08:30:59.787Z,27.70
2018-08-04T08:33:27.945Z,27.90
2018-08-04T08:35:56.110Z,27.90
2018-08-04T08:38:24.278Z,27.90
2018-08-04T08:40:52.449Z,28.10
2018-08-04T08:43:20.842Z,28.10
2018-08-04T08:45:49.006Z,28.10
2018-08-04T08:48:17.175Z,28.20
2018-08-04T08:50:45.706Z,28.40
2018-08-04T08:55:41.815Z,28.50
2018-08-04T08:58:09.991Z,28.60
2018-08-04T09:00:38.204Z,28.60
2018-08-04T09:03:06.788Z,28.70
2018-08-04T09:05:34.962Z,29.00
2018-08-04T09:08:03.135Z,29.00
2018-08-04T09:10:31.322Z,29.10
2018-08-04T09:12:59.498Z,29.20
2018-08-04T09:15:27.666Z,29.30
2018-08-04T09:17:55.862Z,29.30
2018-08-04T09:20:24.031Z,29.30
2018-08-04T09:22:52.258Z,29.40
2018-08-04T09:25:20.431Z,29.50
2018-08-04T09:27:48.602Z,29.70
2018-08-04T09:32:45.054Z,29.80
2018-08-04T09:35:14.458Z,30.00
2018-08-04T09:37:42.634Z,30.10
2018-08-04T09:40:12.738Z,30.10
2018-08-04T09:45:09.706Z,30.30
2018-08-04T09:50:08.920Z,30.60
2018-08-04T09:52:37.310Z,30.70
2018-08-04T09:55:06.481Z,30.90
2018-08-04T10:00:02.603Z,30.80
2018-08-04T10:02:30.770Z,31.00
2018-08-04T10:04:58.947Z,30.80
2018-08-04T10:07:27.380Z,30.80
2018-08-04T10:09:55.555Z,30.90
2018-08-04T10:12:24.018Z,30.90
2018-08-04T10:14:52.212Z,31.00
2018-08-04T10:17:20.403Z,31.10
2018-08-04T10:19:48.586Z,31.30
2018-08-04T10:22:16.781Z,31.50
2018-08-04T10:24:44.960Z,31.60
2018-08-04T10:27:13.135Z,31.60
2018-08-04T10:32:09.299Z,31.90
2018-08-04T10:37:05.733Z,32.00
2018-08-04T10:39:33.981Z,32.20
2018-08-04T10:42:02.210Z,32.30
2018-08-04T10:44:30.398Z,32.40
2018-08-04T10:46:58.718Z,32.40
2018-08-04T10:49:26.935Z,32.50
2018-08-04T10:51:55.078Z,32.70
2018-08-04T10:54:23.278Z,32.70
2018-08-04T10:56:51.486Z,32.80
2018-08-04T10:59:19.639Z,33.00
2018-08-04T11:01:47.814Z,32.90
2018-08-04T11:04:15.995Z,33.00
2018-08-04T11:06:44.171Z,33.10
2018-08-04T11:09:12.484Z,33.30
2018-08-04T11:14:09.233Z,33.60
2018-08-04T11:19:06.022Z,33.50
2018-08-04T11:21:34.440Z,33.60
2018-08-04T11:24:02.683Z,33.70
2018-08-04T11:26:30.883Z,33.90
2018-08-04T11:28:59.092Z,33.90
2018-08-04T11:31:27.311Z,34.00
2018-08-04T11:33:55.483Z,34.00
2018-08-04T11:36:23.663Z,34.10
2018-08-04T11:38:51.842Z,34.20
2018-08-04T11:41:20.034Z,34.20
2018-08-04T11:43:48.218Z,34.30
2018-08-04T11:48:44.499Z,34.50
2018-08-04T11:51:12.774Z,34.60
2018-08-04T11:53:40.961Z,34.70
2018-08-04T11:56:09.142Z,34.70
2018-08-04T11:58:37.322Z,34.70
2018-08-04T12:01:05.763Z,34.70
2018-08-04T12:03:33.947Z,34.70
2018-08-04T12:06:02.161Z,34.80
2018-08-04T12:08:30.382Z,34.80
2018-08-04T12:10:58.603Z,34.80
2018-08-04T12:13:26.763Z,35.00
2018-08-04T12:15:54.959Z,35.00
2018-08-04T12:18:23.151Z,35.20
2018-08-04T12:23:19.259Z,35.00
2018-08-04T12:25:47.506Z,35.00
2018-08-04T12:28:15.686Z,35.00
2018-08-04T12:30:43.907Z,34.80
2018-08-04T12:33:12.096Z,34.80
2018-08-04T12:35:40.278Z,34.80
2018-08-04T12:38:08.642Z,34.80
2018-08-04T12:40:36.827Z,34.90
2018-08-04T12:43:05.027Z,34.70
2018-08-04T12:45:33.254Z,34.90
2018-08-04T12:48:01.391Z,35.10
2018-08-04T12:50:29.609Z,35.30
2018-08-04T12:52:57.826Z,35.50
2018-08-04T12:55:26.117Z,35.20
2018-08-04T12:57:54.316Z,35.20
2018-08-04T13:00:22.523Z,35.50
2018-08-04T13:02:50.699Z,35.60
2018-08-04T13:05:18.877Z,35.80
2018-08-04T13:07:47.298Z,35.80
2018-08-04T13:10:15.506Z,35.90
2018-08-04T13:12:43.862Z,36.00
2018-08-04T13:15:12.039Z,35.90
2018-08-04T13:20:08.158Z,35.60
2018-08-04T13:22:36.340Z,35.40
2018-08-04T13:25:04.607Z,35.10
2018-08-04T13:27:32.859Z,35.00
2018-08-04T13:30:01.031Z,34.90
2018-08-04T13:32:29.210Z,34.90
2018-08-04T13:34:57.803Z,35.10
2018-08-04T13:39:54.136Z,35.30
2018-08-04T13:42:22.357Z,35.40
2018-08-04T13:44:50.816Z,35.50
2018-08-04T13:47:18.995Z,35.60
2018-08-04T13:49:47.170Z,35.70
2018-08-04T13:54:43.294Z,35.80
2018-08-04T13:57:11.474Z,35.90
2018-08-04T13:59:39.713Z,36.00
2018-08-04T14:02:07.858Z,35.90
2018-08-04T14:04:36.029Z,35.80
2018-08-04T14:07:04.214Z,35.70
2018-08-04T14:09:32.401Z,35.70
2018-08-04T14:12:00.598Z,35.70
2018-08-04T14:14:28.758Z,35.60
2018-08-04T14:16:56.960Z,35.70
2018-08-04T14:21:53.194Z,35.80
2018-08-04T14:24:21.390Z,35.90
2018-08-04T14:29:17.538Z,36.00
2018-08-04T14:31:45.715Z,36.10
2018-08-04T14:34:13.916Z,36.10
2018-08-04T14:36:42.090Z,36.10
2018-08-04T14:39:12.054Z,36.10
2018-08-04T14:44:08.395Z,36.20
2018-08-04T14:49:04.838Z,36.10
2018-08-04T14:54:01.194Z,36.00
2018-08-04T14:56:29.378Z,36.00
2018-08-04T14:58:57.566Z,36.00
2018-08-04T15:01:25.742Z,36.00
2018-08-04T15:03:54.062Z,36.00
2018-08-04T15:06:22.483Z,36.00
2018-08-04T15:08:50.964Z,35.70
2018-08-04T15:11:19.160Z,35.70
2018-08-04T15:13:47.374Z,35.60
2018-08-04T15:16:15.558Z,35.60
2018-08-04T15:18:43.790Z,35.50
2018-08-04T15:21:12.120Z,35.50
2018-08-04T15:23:40.385Z,35.50
2018-08-04T15:26:08.624Z,35.40
2018-08-04T15:28:36.963Z,35.30
2018-08-04T15:31:05.325Z,35.30
2018-08-04T15:33:33.494Z,35.20
2018-08-04T15:36:01.673Z,35.10
2018-08-04T15:38:29.846Z,35.00
2018-08-04T15:40:58.026Z,35.10
2018-08-04T15:43:26.217Z,35.00
2018-08-04T15:45:54.691Z,34.90
2018-08-04T15:48:22.862Z,34.90
2018-08-04T15:50:51.337Z,34.90
2018-08-04T15:53:19.774Z,34.90
2018-08-04T15:55:47.947Z,34.80
2018-08-04T15:58:16.126Z,34.70
2018-08-04T16:00:44.292Z,34.70
2018-08-04T16:05:40.414Z,34.60
2018-08-04T16:08:08.575Z,34.50
2018-08-04T16:10:36.748Z,34.50
2018-08-04T16:13:05.098Z,34.30
2018-08-04T16:15:33.274Z,34.30
2018-08-04T16:18:01.501Z,34.20
2018-08-04T16:20:29.728Z,34.20
2018-08-04T16:22:57.910Z,34.20
2018-08-04T16:25:26.111Z,34.20
2018-08-04T16:27:54.277Z,34.10
2018-08-04T16:30:22.465Z,34.10
2018-08-04T16:32:50.647Z,34.10
2018-08-04T16:37:46.759Z,34.10
2018-08-04T16:40:14.943Z,34.10
2018-08-04T16:42:43.118Z,34.00
2018-08-04T16:47:39.237Z,33.90
2018-08-04T16:50:07.678Z,33.90
2018-08-04T16:52:35.854Z,33.80
2018-08-04T16:55:04.059Z,33.80
2018-08-04T16:57:32.242Z,33.70
2018-08-04T17:00:00.887Z,33.70
2018-08-04T17:02:29.114Z,33.60
2018-08-04T17:04:57.345Z,33.50
2018-08-04T17:07:25.559Z,33.40
2018-08-04T17:09:53.751Z,33.40
2018-08-04T17:12:21.984Z,33.30
2018-08-04T17:14:50.158Z,33.30
2018-08-04T17:17:18.330Z,33.30
2018-08-04T17:19:46.503Z,33.20
2018-08-04T17:22:14.701Z,33.10
2018-08-04T17:24:42.900Z,33.10
2018-08-04T17:27:11.054Z,33.00
2018-08-04T17:29:39.218Z,33.00
2018-08-04T17:32:07.383Z,33.00
2018-08-04T17:34:35.538Z,32.80
2018-08-04T17:37:03.711Z,32.70
2018-08-04T17:39:31.878Z,32.60
2018-08-04T17:42:00.046Z,32.40
2018-08-04T17:44:28.240Z,32.30
2018-08-04T17:46:56.423Z,32.10
2018-08-04T17:49:24.656Z,32.00
2018-08-04T17:51:52.839Z,32.00
2018-08-04T17:54:21.254Z,31.90
2018-08-04T17:59:17.654Z,31.70
2018-08-04T18:01:45.819Z,31.60
2018-08-04T18:04:14.218Z,31.50
2018-08-04T18:06:42.535Z,31.40
2018-08-04T18:11:39.599Z,31.30
2018-08-04T18:14:07.891Z,31.20
2018-08-04T18:16:36.350Z,31.10
2018-08-04T18:21:32.906Z,30.90
2018-08-04T18:24:01.070Z,30.90
2018-08-04T18:26:29.250Z,30.80
2018-08-04T18:28:57.439Z,30.70
2018-08-04T18:31:25.652Z,30.70
2018-08-04T18:33:53.846Z,30.60
2018-08-04T18:36:22.049Z,30.50
2018-08-04T18:38:50.312Z,30.50
2018-08-04T18:43:46.436Z,30.30
2018-08-04T18:46:14.614Z,30.20
2018-08-04T18:51:11.954Z,30.00
2018-08-04T18:53:40.122Z,29.90
2018-08-04T18:56:08.303Z,29.90
2018-08-04T18:58:36.526Z,29.80
2018-08-04T19:01:04.735Z,29.70
2018-08-04T19:03:32.898Z,29.70
2018-08-04T19:06:01.126Z,29.60
2018-08-04T19:10:57.238Z,29.40
2018-08-04T19:13:25.414Z,29.30
2018-08-04T19:15:53.605Z,29.20
2018-08-04T19:18:21.799Z,29.20
2018-08-04T19:20:50.008Z,29.10
2018-08-04T19:23:18.203Z,29.00
2018-08-04T19:25:46.386Z,28.90
2018-08-04T19:28:14.629Z,28.90
2018-08-04T19:30:42.811Z,28.80
2018-08-04T19:33:11.017Z,28.80
2018-08-04T19:35:39.438Z,28.70
2018-08-04T19:38:07.683Z,28.70
2018-08-04T19:40:35.899Z,28.70
2018-08-04T19:43:04.149Z,28.60
2018-08-04T19:45:32.380Z,28.50
2018-08-04T19:48:00.621Z,28.50
2018-08-04T19:50:28.853Z,28.40
2018-08-04T19:52:57.083Z,28.30
2018-08-04T19:55:25.274Z,28.30
2018-08-04T19:57:53.547Z,28.20
2018-08-04T20:00:21.963Z,28.10
2018-08-04T20:02:50.150Z,28.00
2018-08-04T20:05:18.323Z,28.00
2018-08-04T20:07:46.514Z,28.00
2018-08-04T20:10:14.686Z,27.90
2018-08-04T20:12:42.921Z,27.90
2018-08-04T20:17:39.163Z,27.80
2018-08-04T20:20:07.347Z,27.80
2018-08-04T20:22:35.555Z,27.70
2018-08-04T20:25:03.950Z,27.70
2018-08-04T20:27:32.131Z,27.60
2018-08-04T20:30:00.323Z,27.60
2018-08-04T20:32:28.514Z,27.60
2018-08-04T20:34:56.727Z,27.50
2018-08-04T20:37:24.903Z,27.40
2018-08-04T20:39:53.089Z,27.40
2018-08-04T20:42:21.279Z,27.40
2018-08-04T20:44:49.447Z,27.30
2018-08-04T20:47:17.663Z,27.30
2018-08-04T20:49:45.835Z,27.20
2018-08-04T20:52:14.263Z,27.10
2018-08-04T20:54:42.454Z,27.00
2018-08-04T20:59:38.586Z,27.00
2018-08-04T21:02:06.879Z,26.90
2018-08-04T21:07:04.444Z,26.80
2018-08-04T21:09:32.831Z,26.80
2018-08-04T21:12:01.048Z,26.80
2018-08-04T21:14:29.598Z,26.70
2018-08-04T21:16:58.687Z,26.70
2018-08-04T21:19:27.286Z,26.60
2018-08-04T21:21:55.479Z,26.50
2018-08-04T21:24:24.894Z,26.50
2018-08-04T21:26:53.919Z,26.50
2018-08-04T21:31:50.495Z,26.30
2018-08-04T21:34:18.827Z,26.30
2018-08-04T21:36:47.015Z,26.30
2018-08-04T21:39:16.426Z,26.30
2018-08-04T21:41:45.419Z,26.20
2018-08-04T21:44:13.894Z,26.20
2018-08-04T21:46:44.741Z,26.20
2018-08-04T21:49:13.341Z,26.10
2018-08-04T21:51:43.122Z,26.10
2018-08-04T21:56:40.119Z,26.00
2018-08-04T21:59:08.565Z,26.00
2018-08-04T22:01:36.919Z,26.00
2018-08-04T22:04:04.992Z,25.90
2018-08-04T22:07:44.980Z,25.90
2018-08-04T22:10:13.711Z,25.90
2018-08-04T22:12:42.530Z,25.80
2018-08-04T22:17:39.727Z,25.80
2018-08-04T22:20:09.623Z,25.70
2018-08-04T22:22:38.305Z,25.70
2018-08-04T22:25:07.834Z,25.80
2018-08-04T22:27:36.097Z,25.80
2018-08-04T22:30:05.259Z,25.80
2018-08-04T22:32:33.452Z,25.80
2018-08-04T22:35:01.631Z,25.70
2018-08-04T22:37:29.798Z,25.70
2018-08-04T22:39:58.071Z,25.70
2018-08-04T22:42:26.235Z,25.60
2018-08-04T22:48:33.465Z,25.50
2018-08-04T22:51:01.702Z,25.40
2018-08-04T22:53:30.103Z,25.50
2018-08-04T22:55:58.302Z,25.50
2018-08-04T22:58:26.494Z,25.40
2018-08-04T23:00:54.666Z,25.40
2018-08-04T23:03:22.818Z,25.30
2018-08-04T23:05:50.986Z,25.30
2018-08-04T23:08:19.150Z,25.30
2018-08-04T23:10:47.334Z,25.30
2018-08-04T23:13:15.986Z,25.20
2018-08-04T23:18:12.463Z,25.20
2018-08-04T23:20:40.813Z,25.10
2018-08-04T23:23:10.011Z,25.10
2018-08-04T23:28:06.434Z,25.00
2018-08-04T23:30:34.617Z,25.00
2018-08-04T23:33:03.776Z,25.00
2018-08-04T23:35:31.986Z,25.00
2018-08-04T23:38:00.159Z,25.00
2018-08-04T23:40:28.382Z,25.10
2018-08-04T23:42:56.623Z,25.10
2018-08-04T23:45:24.831Z,25.10
2018-08-04T23:47:53.026Z,25.10
2018-08-04T23:50:21.215Z,25.10
2018-08-04T23:52:49.404Z,25.10
2018-08-04T23:55:17.579Z,25.20
